createdAt,value
2022-12-05T00:03:24.098Z,29.62
2022-12-05T00:08:25.480Z,29.63
2022-12-05T00:13:26.842Z,29.81
2022-12-05T00:18:28.216Z,29.66
2022-12-05T00:23:29.947Z,29.63
2022-12-05T00:28:34.246Z,29.66
2022-12-05T00:33:35.655Z,29.79
2022-12-05T00:38:37.054Z,29.88
2022-12-05T00:43:38.507Z,29.88
2022-12-05T00:48:39.953Z,29.65
2022-12-05T00:53:41.443Z,29.56
2022-12-05T00:58:42.868Z,29.62
2022-12-05T01:03:44.537Z,29.81
2022-12-05T01:08:45.900Z,29.68
2022-12-05T01:13:47.311Z,29.67
2022-12-05T01:18:48.690Z,29.66
2022-12-05T01:23:50.099Z,29.75
2022-12-05T01:28:51.603Z,29.77
2022-12-05T01:33:53.805Z,29.58
2022-12-05T01:38:55.418Z,29.83
2022-12-05T01:44:03.590Z,29.75
2022-12-05T01:49:14.330Z,29.51
2022-12-05T01:54:16.519Z,29.70
2022-12-05T01:59:17.987Z,29.82
2022-12-05T02:04:19.395Z,29.72
2022-12-05T02:09:21.453Z,29.76
2022-12-05T02:14:39.788Z,30.10
2022-12-05T02:20:00.291Z,29.95
2022-12-05T02:25:37.318Z,30.06
2022-12-05T02:30:40.206Z,29.76
2022-12-05T02:36:02.954Z,29.77
2022-12-05T02:41:48.350Z,29.79
2022-12-05T02:46:49.578Z,29.89
2022-12-05T02:51:53.452Z,30.08
2022-12-05T02:56:54.946Z,30.16
2022-12-05T03:01:56.318Z,29.92
2022-12-05T03:07:04.895Z,29.64
2022-12-05T03:12:08.540Z,29.84
2022-12-05T03:17:11.577Z,29.77
2022-12-05T03:22:18.742Z,29.90
2022-12-05T03:27:33.908Z,29.89
2022-12-05T03:33:06.244Z,29.83
2022-12-05T03:38:13.316Z,29.96
2022-12-05T03:43:23.452Z,29.94
2022-12-05T03:48:43.620Z,29.93
2022-12-05T03:53:51.407Z,29.92
2022-12-05T03:59:01.588Z,29.64
2022-12-05T04:04:10.936Z,30.05
2022-12-05T04:09:28.046Z,30.19
2022-12-05T04:14:40.185Z,30.06
2022-12-05T04:20:20.360Z,30.13
2022-12-05T04:25:33.650Z,29.98
2022-12-05T04:30:41.219Z,29.76
2022-12-05T04:36:03.010Z,30.01
2022-12-05T04:41:06.436Z,29.87
2022-12-05T04:46:10.045Z,30.03
2022-12-05T04:51:13.198Z,30.02
2022-12-05T04:56:15.615Z,29.89
2022-12-05T05:01:22.886Z,29.88
2022-12-05T05:06:24.374Z,29.98
2022-12-05T05:11:29.886Z,29.94
2022-12-05T05:16:36.333Z,29.87
2022-12-05T05:21:39.136Z,29.82
2022-12-05T05:26:41.731Z,29.70
2022-12-05T05:31:43.158Z,29.99
2022-12-05T05:36:44.578Z,29.89
2022-12-05T05:41:45.956Z,29.80
2022-12-05T05:46:47.369Z,29.87
2022-12-05T05:51:48.792Z,29.83
2022-12-05T05:56:50.171Z,29.87
2022-12-05T06:01:51.542Z,29.82
2022-12-05T06:06:52.904Z,29.76
2022-12-05T06:11:54.299Z,29.83
2022-12-05T06:16:55.767Z,29.67
2022-12-05T06:21:57.190Z,29.89
2022-12-05T06:26:58.559Z,29.76
2022-12-05T06:32:00.003Z,29.67
2022-12-05T06:37:01.522Z,29.88
2022-12-05T06:42:02.983Z,29.71
2022-12-05T06:47:04.364Z,29.70
2022-12-05T06:52:05.824Z,29.74
2022-12-05T06:57:07.437Z,29.78
2022-12-05T07:02:14.301Z,29.60
2022-12-05T07:07:15.755Z,29.87
2022-12-05T07:12:18.047Z,29.95
2022-12-05T07:17:19.499Z,29.58
2022-12-05T07:22:21.849Z,29.66
2022-12-05T07:27:27.201Z,29.54
2022-12-05T07:32:32.146Z,29.32
2022-12-05T07:37:33.524Z,29.27
2022-12-05T07:42:34.960Z,29.30
2022-12-05T07:47:36.405Z,29.35
2022-12-05T07:52:37.824Z,29.58
2022-12-05T07:57:39.204Z,29.29
2022-12-05T08:02:41.091Z,29.21
2022-12-05T08:07:42.702Z,29.23
2022-12-05T08:12:44.172Z,29.08
2022-12-05T08:17:45.544Z,29.28
2022-12-05T08:22:46.932Z,29.47
2022-12-05T08:27:48.327Z,29.23
2022-12-05T08:32:49.695Z,29.04
2022-12-05T08:37:51.964Z,29.28
2022-12-05T08:42:53.332Z,29.06
2022-12-05T08:47:54.720Z,29.02
2022-12-05T08:52:56.080Z,29.04
2022-12-05T08:57:57.449Z,28.90
2022-12-05T09:02:59.161Z,29.03
2022-12-05T09:08:00.721Z,28.80
2022-12-05T09:13:02.227Z,28.77
2022-12-05T09:18:03.640Z,28.91
2022-12-05T09:23:05.013Z,28.69
2022-12-05T09:28:06.396Z,28.58
2022-12-05T09:33:07.804Z,28.78
2022-12-05T09:38:09.172Z,28.75
2022-12-05T09:43:25.694Z,28.73
2022-12-05T09:48:27.072Z,28.62
2022-12-05T09:53:35.779Z,28.49
2022-12-05T09:58:42.971Z,28.34
2022-12-05T10:03:58.979Z,28.42
2022-12-05T10:09:31.227Z,28.46
2022-12-05T10:14:36.339Z,28.52
2022-12-05T10:19:39.924Z,28.34
2022-12-05T10:24:56.321Z,28.27
2022-12-05T10:29:58.551Z,28.23
2022-12-05T10:35:02.339Z,28.18
2022-12-05T10:40:03.864Z,28.25
2022-12-05T10:45:07.244Z,28.15
2022-12-05T10:50:27.680Z,28.14
2022-12-05T10:55:32.292Z,28.30
2022-12-05T11:00:33.699Z,28.05
2022-12-05T11:05:35.244Z,28.24
2022-12-05T11:10:37.669Z,27.66
2022-12-05T11:15:39.157Z,27.82
2022-12-05T11:20:41.131Z,27.73
2022-12-05T11:25:42.507Z,27.73
2022-12-05T11:30:58.463Z,27.58
2022-12-05T11:36:11.432Z,27.68
2022-12-05T11:41:39.108Z,27.76
2022-12-05T11:47:04.471Z,27.80
2022-12-05T11:52:22.809Z,27.75
2022-12-05T11:57:56.540Z,27.86
2022-12-05T12:03:33.354Z,27.65
2022-12-05T12:09:01.140Z,27.38
2022-12-05T12:14:20.365Z,27.51
2022-12-05T12:19:47.835Z,27.44
2022-12-05T12:25:11.955Z,27.44
2022-12-05T12:30:17.467Z,27.35
2022-12-05T12:35:29.824Z,27.26
2022-12-05T12:40:35.004Z,27.27
2022-12-05T12:45:51.213Z,27.10
2022-12-05T12:50:53.968Z,27.06
2022-12-05T12:56:23.067Z,27.34
2022-12-05T13:01:53.256Z,27.27
2022-12-05T13:06:58.467Z,27.06
2022-12-05T13:12:05.022Z,26.94
2022-12-05T13:17:06.678Z,27.10
2022-12-05T13:22:08.700Z,27.04
2022-12-05T13:27:15.354Z,27.00
2022-12-05T13:32:34.248Z,27.05
2022-12-05T13:37:54.230Z,27.03
2022-12-05T13:43:02.856Z,27.43
2022-12-05T13:48:14.369Z,27.22
2022-12-05T13:53:37.535Z,27.24
2022-12-05T13:58:45.874Z,27.46
2022-12-05T14:03:47.085Z,27.42
2022-12-05T14:08:52.802Z,27.41
2022-12-05T14:13:54.553Z,27.54
2022-12-05T14:19:24.455Z,27.71
2022-12-05T14:25:00.141Z,27.95
2022-12-05T14:30:05.583Z,27.82
2022-12-05T14:35:29.659Z,27.84
2022-12-05T14:40:38.104Z,28.11
2022-12-05T14:45:40.852Z,28.22
2022-12-05T14:50:49.430Z,28.35
2022-12-05T14:55:56.082Z,28.20
2022-12-05T15:01:01.978Z,28.46
2022-12-05T15:06:04.906Z,28.50
2022-12-05T15:11:06.280Z,28.52
2022-12-05T15:16:15.782Z,28.46
2022-12-05T15:21:44.747Z,28.38
2022-12-05T15:26:58.598Z,28.79
2022-12-05T15:32:15.886Z,28.78
2022-12-05T15:37:36.855Z,28.65
2022-12-05T15:43:01.618Z,28.66
2022-12-05T15:48:02.828Z,28.55
2022-12-05T15:53:10.267Z,28.58
2022-12-05T15:58:27.611Z,28.76
2022-12-05T16:03:41.413Z,28.51
2022-12-05T16:08:46.379Z,28.62
2022-12-05T16:13:49.593Z,28.51
2022-12-05T16:18:53.401Z,28.49
2022-12-05T16:24:00.356Z,28.33
2022-12-05T16:29:02.039Z,28.62
2022-12-05T16:34:05.325Z,28.42
2022-12-05T16:39:07.090Z,28.47
2022-12-05T16:44:26.629Z,28.37
2022-12-05T16:49:30.961Z,28.31
2022-12-05T16:54:32.367Z,28.56
2022-12-05T16:59:37.586Z,28.48
2022-12-05T17:04:39.051Z,28.53
2022-12-05T17:09:40.545Z,28.40
2022-12-05T17:14:41.960Z,28.57
2022-12-05T17:19:43.399Z,28.17
2022-12-05T17:24:44.819Z,28.47
2022-12-05T17:29:46.244Z,28.26
2022-12-05T17:34:47.624Z,28.20
2022-12-05T17:39:48.999Z,28.26
2022-12-05T17:44:50.369Z,28.10
2022-12-05T17:49:51.748Z,28.14
2022-12-05T17:54:53.136Z,28.07
2022-12-05T17:59:54.517Z,27.89
2022-12-05T18:04:56.338Z,27.97
2022-12-05T18:09:57.955Z,28.04
2022-12-05T18:14:59.588Z,27.95
2022-12-05T18:20:01.188Z,28.10
2022-12-05T18:25:03.426Z,28.04
2022-12-05T18:30:05.567Z,28.05
2022-12-05T18:35:12.672Z,28.03
2022-12-05T18:40:14.832Z,28.22
2022-12-05T18:45:16.273Z,28.14
2022-12-05T18:50:17.639Z,28.27
2022-12-05T18:55:27.010Z,28.37
2022-12-05T19:00:39.696Z,28.45
2022-12-05T19:05:43.154Z,28.45
2022-12-05T19:10:44.535Z,28.55
2022-12-05T19:15:48.682Z,28.41
2022-12-05T19:20:51.088Z,28.54
2022-12-05T19:25:59.149Z,28.74
2022-12-05T19:31:04.667Z,28.58
2022-12-05T19:36:11.444Z,28.71
2022-12-05T19:41:14.476Z,28.73
2022-12-05T19:46:18.833Z,28.75
2022-12-05T19:51:20.344Z,28.57
2022-12-05T19:56:23.060Z,28.47
2022-12-05T20:01:26.174Z,28.38
2022-12-05T20:06:51.628Z,28.52
2022-12-05T20:11:55.531Z,28.81
2022-12-05T20:16:57.186Z,28.75
2022-12-05T20:21:58.652Z,28.77
2022-12-05T20:27:01.506Z,28.82
2022-12-05T20:32:03.267Z,28.92
2022-12-05T20:37:04.623Z,29.11
2022-12-05T20:42:06.082Z,29.15
2022-12-05T20:47:07.484Z,29.11
2022-12-05T20:52:08.852Z,29.06
2022-12-05T20:57:10.232Z,29.00
2022-12-05T21:02:11.662Z,29.17
2022-12-05T21:07:13.045Z,29.15
2022-12-05T21:12:14.416Z,29.03
2022-12-05T21:17:15.779Z,29.01
2022-12-05T21:22:17.168Z,28.74
2022-12-05T21:27:19.777Z,28.50
2022-12-05T21:32:21.176Z,28.32
2022-12-05T21:37:22.552Z,28.14
2022-12-05T21:42:23.925Z,27.93
2022-12-05T21:47:25.344Z,27.92
2022-12-05T21:52:26.710Z,28.12
2022-12-05T21:57:29.212Z,27.61
2022-12-05T22:02:30.635Z,27.70
2022-12-05T22:07:32.090Z,27.55
2022-12-05T22:12:33.908Z,27.74
2022-12-05T22:17:35.543Z,27.72
2022-12-05T22:22:36.935Z,27.43
2022-12-05T22:27:38.296Z,27.40
2022-12-05T22:32:40.052Z,27.60
2022-12-05T22:37:41.407Z,27.29
2022-12-05T22:42:42.851Z,27.17
2022-12-05T22:47:44.219Z,27.33
2022-12-05T22:52:45.589Z,27.34
2022-12-05T22:57:46.992Z,27.46
2022-12-05T23:02:48.415Z,27.25
2022-12-05T23:07:49.853Z,27.40
2022-12-05T23:12:51.255Z,27.37
2022-12-05T23:17:52.640Z,27.43
2022-12-05T23:22:53.999Z,27.32
2022-12-05T23:27:55.380Z,27.42
2022-12-05T23:32:56.789Z,27.58
2022-12-05T23:37:58.159Z,27.38
2022-12-05T23:42:59.543Z,27.40
2022-12-05T23:48:04.525Z,27.31
2022-12-05T23:53:06.428Z,27.35
2022-12-05T23:58:07.795Z,27.22
